createdAt,value
2018-04-18T00:00:35.925Z,1005.16
2018-04-18T00:01:35.922Z,1005.12
2018-04-18T00:02:35.916Z,1005.11
2018-04-18T00:03:56.933Z,1005.11
2018-04-18T00:04:35.907Z,1005.14
2018-04-18T00:05:35.900Z,1005.12
2018-04-18T00:06:35.895Z,1005.15
2018-04-18T00:07:35.888Z,1005.16
2018-04-18T00:08:35.887Z,1005.13
2018-04-18T00:09:56.917Z,1005.14
2018-04-18T00:10:35.874Z,1005.14
2018-04-18T00:11:35.868Z,1005.15
2018-04-18T00:12:35.863Z,1005.19
2018-04-18T00:13:35.857Z,1005.16
2018-04-18T00:14:35.852Z,1005.17
2018-04-18T00:15:56.857Z,1005.11
2018-04-18T00:16:35.847Z,1005.12
2018-04-18T00:17:35.837Z,1005.12
2018-04-18T00:18:35.832Z,1005.14
2018-04-18T00:19:35.828Z,1005.13
2018-04-18T00:20:35.821Z,1005.16
2018-04-18T00:21:56.848Z,1005.12
2018-04-18T00:22:35.810Z,1005.12
2018-04-18T00:23:35.808Z,1005.16
2018-04-18T00:24:35.804Z,1005.16
2018-04-18T00:25:35.802Z,1005.12
2018-04-18T00:26:35.792Z,1005.15
2018-04-18T00:27:56.796Z,1005.14
2018-04-18T00:28:35.779Z,1005.15
2018-04-18T00:29:35.777Z,1005.16
2018-04-18T00:30:35.770Z,1005.22
2018-04-18T00:31:35.762Z,1005.15
2018-04-18T00:32:35.759Z,1005.19
2018-04-18T00:33:56.760Z,1005.18
2018-04-18T00:34:35.754Z,1005.17
2018-04-18T00:35:35.744Z,1005.19
2018-04-18T00:36:35.736Z,1005.20
2018-04-18T00:37:35.732Z,1005.19
2018-04-18T00:38:35.727Z,1005.19
2018-04-18T00:39:56.729Z,1005.20
2018-04-18T00:40:35.728Z,1005.20
2018-04-18T00:41:35.711Z,1005.22
2018-04-18T00:42:35.707Z,1005.23
2018-04-18T00:43:35.710Z,1005.21
2018-04-18T00:44:35.695Z,1005.23
2018-04-18T00:45:56.699Z,1005.28
2018-04-18T00:46:35.689Z,1005.26
2018-04-18T00:47:35.681Z,1005.26
2018-04-18T00:48:35.679Z,1005.29
2018-04-18T00:49:35.674Z,1005.31
2018-04-18T00:50:35.669Z,1005.28
2018-04-18T00:51:56.666Z,1005.30
2018-04-18T00:52:35.659Z,1005.30
2018-04-18T00:53:35.648Z,1005.31
2018-04-18T00:54:35.645Z,1005.29
2018-04-18T00:55:35.636Z,1005.29
2018-04-18T00:56:35.633Z,1005.30
2018-04-18T00:57:56.638Z,1005.27
2018-04-18T00:58:35.621Z,1005.32
2018-04-18T00:59:35.619Z,1005.33
2018-04-18T01:00:35.611Z,1005.30
2018-04-18T01:01:35.612Z,1005.31
2018-04-18T01:02:35.602Z,1005.34
2018-04-18T01:03:56.603Z,1005.34
2018-04-18T01:04:35.590Z,1005.35
2018-04-18T01:05:35.593Z,1005.34
2018-04-18T01:06:35.583Z,1005.34
2018-04-18T01:07:35.571Z,1005.33
2018-04-18T01:08:35.567Z,1005.36
2018-04-18T01:09:56.573Z,1005.38
2018-04-18T01:10:35.561Z,1005.35
2018-04-18T01:11:35.549Z,1005.35
2018-04-18T01:12:35.548Z,1005.35
2018-04-18T01:13:35.546Z,1005.33
2018-04-18T01:14:35.538Z,1005.33
2018-04-18T01:15:56.541Z,1005.34
2018-04-18T01:16:35.526Z,1005.34
2018-04-18T01:17:35.526Z,1005.32
2018-04-18T01:18:35.526Z,1005.34
2018-04-18T01:19:35.512Z,1005.29
2018-04-18T01:20:35.507Z,1005.28
2018-04-18T01:21:56.511Z,1005.32
2018-04-18T01:22:35.495Z,1005.33
2018-04-18T01:23:35.497Z,1005.30
2018-04-18T01:24:35.500Z,1005.32
2018-04-18T01:25:35.479Z,1005.32
2018-04-18T01:26:35.484Z,1005.32
2018-04-18T01:27:56.479Z,1005.30
2018-04-18T01:28:35.463Z,1005.32
2018-04-18T01:29:35.458Z,1005.36
2018-04-18T01:30:35.459Z,1005.34
2018-04-18T01:31:35.449Z,1005.36
2018-04-18T01:32:35.442Z,1005.37
2018-04-18T01:33:56.451Z,1005.36
2018-04-18T01:34:35.443Z,1005.35
2018-04-18T01:35:35.430Z,1005.36
2018-04-18T01:36:35.421Z,1005.36
2018-04-18T01:37:35.416Z,1005.34
2018-04-18T01:38:35.411Z,1005.36
2018-04-18T01:39:56.421Z,1005.36
2018-04-18T01:40:35.398Z,1005.36
2018-04-18T01:41:35.394Z,1005.37
2018-04-18T01:42:35.398Z,1005.38
2018-04-18T01:43:35.383Z,1005.39
2018-04-18T01:44:35.378Z,1005.37
2018-04-18T01:45:56.396Z,1005.39
2018-04-18T01:46:35.372Z,1005.38
2018-04-18T01:47:35.361Z,1005.39
2018-04-18T01:48:35.357Z,1005.38
2018-04-18T01:49:35.358Z,1005.36
2018-04-18T01:50:35.345Z,1005.38
2018-04-18T01:51:56.348Z,1005.34
2018-04-18T01:52:35.334Z,1005.36
2018-04-18T01:53:35.333Z,1005.36
2018-04-18T01:54:35.325Z,1005.37
2018-04-18T01:55:35.320Z,1005.39
2018-04-18T01:56:35.316Z,1005.40
2018-04-18T01:57:56.318Z,1005.39
2018-04-18T01:58:35.304Z,1005.42
2018-04-18T01:59:35.301Z,1005.43
2018-04-18T02:00:35.297Z,1005.42
2018-04-18T02:01:35.289Z,1005.45
2018-04-18T02:02:35.284Z,1005.44
2018-04-18T02:03:56.292Z,1005.46
2018-04-18T02:04:35.270Z,1005.48
2018-04-18T02:05:35.269Z,1005.48
2018-04-18T02:06:35.261Z,1005.48
2018-04-18T02:07:35.254Z,1005.52
2018-04-18T02:08:35.250Z,1005.50
2018-04-18T02:09:56.296Z,1005.58
2018-04-18T02:10:35.248Z,1005.53
2018-04-18T02:11:35.251Z,1005.52
2018-04-18T02:12:35.229Z,1005.53
2018-04-18T02:13:35.223Z,1005.55
2018-04-18T02:14:35.217Z,1005.54
2018-04-18T02:15:56.218Z,1005.58
2018-04-18T02:16:35.247Z,1005.55
2018-04-18T02:17:35.208Z,1005.55
2018-04-18T02:18:35.195Z,1005.56
2018-04-18T02:19:35.188Z,1005.54
2018-04-18T02:20:35.192Z,1005.58
2018-04-18T02:21:56.187Z,1005.55
2018-04-18T02:22:35.179Z,1005.60
2018-04-18T02:23:35.168Z,1005.57
2018-04-18T02:24:35.165Z,1005.56
2018-04-18T02:25:35.156Z,1005.57
2018-04-18T02:26:35.156Z,1005.60
2018-04-18T02:27:56.155Z,1005.58
2018-04-18T02:28:35.145Z,1005.58
2018-04-18T02:29:35.146Z,1005.60
2018-04-18T02:30:35.131Z,1005.61
2018-04-18T02:31:35.127Z,1005.64
2018-04-18T02:32:35.120Z,1005.60
2018-04-18T02:33:56.123Z,1005.62
2018-04-18T02:34:35.110Z,1005.61
2018-04-18T02:35:35.155Z,1005.63
2018-04-18T02:36:35.099Z,1005.65
2018-04-18T02:37:35.093Z,1005.63
2018-04-18T02:38:35.097Z,1005.62
2018-04-18T02:39:56.090Z,1005.66
2018-04-18T02:40:35.076Z,1005.64
2018-04-18T02:41:35.073Z,1005.68
2018-04-18T02:42:35.068Z,1005.69
2018-04-18T02:43:35.062Z,1005.65
2018-04-18T02:44:35.050Z,1005.68
2018-04-18T02:45:56.056Z,1005.65
2018-04-18T02:46:35.047Z,1005.66
2018-04-18T02:47:35.037Z,1005.68
2018-04-18T02:48:35.033Z,1005.70
2018-04-18T02:49:35.029Z,1005.69
2018-04-18T02:50:35.021Z,1005.71
2018-04-18T02:51:56.020Z,1005.67
2018-04-18T02:52:35.010Z,1005.68
2018-04-18T02:53:35.003Z,1005.67
2018-04-18T02:54:34.999Z,1005.69
2018-04-18T02:55:35.009Z,1005.64
2018-04-18T02:56:34.985Z,1005.66
2018-04-18T02:57:55.988Z,1005.65
2018-04-18T02:58:34.979Z,1005.66
2018-04-18T02:59:34.976Z,1005.66
2018-04-18T03:00:34.967Z,1005.65
2018-04-18T03:01:34.959Z,1005.70
2018-04-18T03:02:34.955Z,1005.68
2018-04-18T03:03:55.954Z,1005.66
2018-04-18T03:04:34.953Z,1005.67
2018-04-18T03:05:34.940Z,1005.66
2018-04-18T03:06:34.932Z,1005.71
2018-04-18T03:07:34.926Z,1005.72
2018-04-18T03:08:34.922Z,1005.70
2018-04-18T03:09:55.949Z,1005.71
2018-04-18T03:10:34.912Z,1005.69
2018-04-18T03:11:34.910Z,1005.71
2018-04-18T03:12:34.900Z,1005.72
2018-04-18T03:13:34.896Z,1005.75
2018-04-18T03:14:34.891Z,1005.70
2018-04-18T03:15:55.889Z,1005.75
2018-04-18T03:16:34.883Z,1005.74
2018-04-18T03:17:34.875Z,1005.72
2018-04-18T03:18:34.871Z,1005.72
2018-04-18T03:19:34.860Z,1005.75
2018-04-18T03:20:34.858Z,1005.75
2018-04-18T03:21:55.869Z,1005.74
2018-04-18T03:22:34.846Z,1005.73
2018-04-18T03:23:34.840Z,1005.76
2018-04-18T03:24:34.833Z,1005.73
2018-04-18T03:25:34.831Z,1005.78
2018-04-18T03:26:34.828Z,1005.74
2018-04-18T03:27:55.824Z,1005.75
2018-04-18T03:28:34.814Z,1005.75
2018-04-18T03:29:34.808Z,1005.75
2018-04-18T03:30:34.804Z,1005.70
2018-04-18T03:31:34.800Z,1005.71
2018-04-18T03:32:34.794Z,1005.76
2018-04-18T03:33:55.795Z,1005.75
2018-04-18T03:34:34.780Z,1005.74
2018-04-18T03:35:34.778Z,1005.73
2018-04-18T03:36:34.771Z,1005.76
2018-04-18T03:37:34.765Z,1005.71
2018-04-18T03:38:34.760Z,1005.73
2018-04-18T03:39:55.762Z,1005.73
2018-04-18T03:40:34.749Z,1005.72
2018-04-18T03:41:34.744Z,1005.76
2018-04-18T03:42:34.741Z,1005.70
2018-04-18T03:43:34.730Z,1005.70
2018-04-18T03:44:34.729Z,1005.72
2018-04-18T03:45:55.728Z,1005.74
2018-04-18T03:46:34.730Z,1005.74
2018-04-18T03:47:34.710Z,1005.74
2018-04-18T03:48:34.706Z,1005.75
2018-04-18T03:49:34.696Z,1005.77
2018-04-18T03:50:34.694Z,1005.77
2018-04-18T03:51:55.695Z,1005.76
2018-04-18T03:52:34.687Z,1005.77
2018-04-18T03:53:34.680Z,1005.77
2018-04-18T03:54:34.671Z,1005.74
2018-04-18T03:55:34.664Z,1005.79
2018-04-18T03:56:34.657Z,1005.81
2018-04-18T03:57:55.660Z,1005.78
2018-04-18T03:58:34.645Z,1005.79
2018-04-18T03:59:34.640Z,1005.78
2018-04-18T04:00:34.632Z,1005.82
2018-04-18T04:01:34.628Z,1005.83
2018-04-18T04:02:34.642Z,1005.84
2018-04-18T04:03:55.619Z,1005.83
2018-04-18T04:04:34.608Z,1005.87
2018-04-18T04:05:34.601Z,1005.87
2018-04-18T04:06:34.594Z,1005.89
2018-04-18T04:07:34.588Z,1005.86
2018-04-18T04:08:34.585Z,1005.87
2018-04-18T04:09:55.584Z,1005.83
2018-04-18T04:10:34.568Z,1005.89
2018-04-18T04:11:34.560Z,1005.88
2018-04-18T04:12:34.555Z,1005.88
2018-04-18T04:13:34.554Z,1005.94
2018-04-18T04:14:34.554Z,1005.91
2018-04-18T04:15:55.544Z,1005.94
2018-04-18T04:16:34.532Z,1005.99
2018-04-18T04:17:34.528Z,1006.00
2018-04-18T04:18:34.516Z,1006.00
2018-04-18T04:19:34.507Z,1005.99
2018-04-18T04:20:34.504Z,1006.00
2018-04-18T04:21:55.502Z,1006.00
2018-04-18T04:22:34.518Z,1006.05
2018-04-18T04:23:34.489Z,1006.04
2018-04-18T04:24:34.472Z,1006.07
2018-04-18T04:25:34.464Z,1006.04
2018-04-18T04:26:34.461Z,1006.09
2018-04-18T04:27:55.456Z,1006.09
2018-04-18T04:28:34.445Z,1006.07
2018-04-18T04:29:34.440Z,1006.07
2018-04-18T04:30:34.435Z,1006.09
2018-04-18T04:31:34.452Z,1006.12
2018-04-18T04:32:34.418Z,1006.11
2018-04-18T04:33:55.418Z,1006.13
2018-04-18T04:34:34.406Z,1006.16
2018-04-18T04:35:34.396Z,1006.13
2018-04-18T04:36:34.393Z,1006.10
2018-04-18T04:37:34.385Z,1006.15
2018-04-18T04:38:34.375Z,1006.18
2018-04-18T04:39:55.376Z,1006.14
2018-04-18T04:40:34.362Z,1006.15
2018-04-18T04:41:34.360Z,1006.16
2018-04-18T04:42:34.362Z,1006.16
2018-04-18T04:43:34.340Z,1006.15
2018-04-18T04:44:34.334Z,1006.21
2018-04-18T04:45:55.335Z,1006.17
2018-04-18T04:46:34.323Z,1006.18
2018-04-18T04:47:34.317Z,1006.19
2018-04-18T04:48:34.314Z,1006.20
2018-04-18T04:49:34.301Z,1006.23
2018-04-18T04:50:34.294Z,1006.24
2018-04-18T04:51:55.292Z,1006.23
2018-04-18T04:52:34.274Z,1006.23
2018-04-18T04:53:34.270Z,1006.24
2018-04-18T04:54:34.265Z,1006.22
2018-04-18T04:55:34.260Z,1006.25
2018-04-18T04:56:34.251Z,1006.26
2018-04-18T04:57:55.253Z,1006.26
2018-04-18T04:58:34.235Z,1006.27
2018-04-18T04:59:34.228Z,1006.27
2018-04-18T05:00:34.220Z,1006.31
2018-04-18T05:01:34.215Z,1006.27
2018-04-18T05:02:34.255Z,1006.28
2018-04-18T05:03:55.208Z,1006.30
2018-04-18T05:04:34.194Z,1006.33
2018-04-18T05:05:34.180Z,1006.32
2018-04-18T05:06:34.179Z,1006.31
2018-04-18T05:07:34.172Z,1006.32
2018-04-18T05:08:34.166Z,1006.33
2018-04-18T05:09:55.163Z,1006.31
2018-04-18T05:10:34.149Z,1006.32
2018-04-18T05:11:34.145Z,1006.31
2018-04-18T05:12:34.137Z,1006.36
2018-04-18T05:13:34.129Z,1006.34
2018-04-18T05:14:34.123Z,1006.37
2018-04-18T05:15:55.122Z,1006.35
2018-04-18T05:16:34.107Z,1006.33
2018-04-18T05:17:34.105Z,1006.37
2018-04-18T05:18:34.094Z,1006.37
2018-04-18T05:19:34.088Z,1006.39
2018-04-18T05:20:34.081Z,1006.39
2018-04-18T05:21:55.089Z,1006.37
2018-04-18T05:22:34.066Z,1006.41
2018-04-18T05:23:34.057Z,1006.41
2018-04-18T05:24:34.050Z,1006.42
2018-04-18T05:25:34.046Z,1006.43
2018-04-18T05:26:34.035Z,1006.45
2018-04-18T05:27:55.037Z,1006.42
2018-04-18T05:28:34.022Z,1006.38
2018-04-18T05:29:34.021Z,1006.45
2018-04-18T05:30:34.008Z,1006.51
2018-04-18T05:31:34.000Z,1006.49
2018-04-18T05:32:33.993Z,1006.47
2018-04-18T05:33:54.992Z,1006.47
2018-04-18T05:34:33.977Z,1006.47
2018-04-18T05:35:33.972Z,1006.53
2018-04-18T05:36:33.982Z,1006.50
2018-04-18T05:37:33.959Z,1006.53
2018-04-18T05:38:33.948Z,1006.55
2018-04-18T05:39:54.949Z,1006.55
2018-04-18T05:40:33.936Z,1006.58
2018-04-18T05:41:33.932Z,1006.61
2018-04-18T05:42:33.923Z,1006.58
2018-04-18T05:43:33.918Z,1006.61
2018-04-18T05:44:33.910Z,1006.60
2018-04-18T05:45:54.907Z,1006.65
2018-04-18T05:46:33.892Z,1006.64
2018-04-18T05:47:33.885Z,1006.62
2018-04-18T05:48:33.879Z,1006.64
2018-04-18T05:49:33.871Z,1006.63
2018-04-18T05:50:33.871Z,1006.63
2018-04-18T05:51:54.867Z,1006.71
2018-04-18T05:52:33.855Z,1006.66
2018-04-18T05:53:33.844Z,1006.70
2018-04-18T05:54:33.834Z,1006.68
2018-04-18T05:55:33.828Z,1006.69
2018-04-18T05:56:33.824Z,1006.70
2018-04-18T05:57:54.822Z,1006.73
2018-04-18T05:58:33.811Z,1006.71
2018-04-18T05:59:33.802Z,1006.74
2018-04-18T06:00:33.793Z,1006.72
2018-04-18T06:01:33.785Z,1006.76
2018-04-18T06:02:33.778Z,1006.77
2018-04-18T06:03:54.776Z,1006.80
2018-04-18T06:04:33.764Z,1006.78
2018-04-18T06:05:33.758Z,1006.80
2018-04-18T06:06:33.748Z,1006.78
2018-04-18T06:07:33.741Z,1006.80
2018-04-18T06:08:33.734Z,1006.80
2018-04-18T06:09:54.737Z,1006.80
2018-04-18T06:10:33.727Z,1006.81
2018-04-18T06:11:33.718Z,1006.83
2018-04-18T06:12:33.708Z,1006.79
2018-04-18T06:13:33.700Z,1006.78
2018-04-18T06:14:33.693Z,1006.79
2018-04-18T06:15:54.692Z,1006.78
2018-04-18T06:16:33.683Z,1006.79
2018-04-18T06:17:33.684Z,1006.84
2018-04-18T06:18:33.665Z,1006.82
2018-04-18T06:19:33.659Z,1006.85
2018-04-18T06:20:33.650Z,1006.83
2018-04-18T06:21:54.654Z,1006.87
2018-04-18T06:22:33.636Z,1006.87
2018-04-18T06:23:33.633Z,1006.86
2018-04-18T06:24:33.623Z,1006.87
2018-04-18T06:25:33.619Z,1006.84
2018-04-18T06:26:33.608Z,1006.83
2018-04-18T06:27:54.606Z,1006.88
2018-04-18T06:28:33.598Z,1006.83
2018-04-18T06:29:33.586Z,1006.91
2018-04-18T06:30:33.581Z,1006.87
2018-04-18T06:31:33.572Z,1006.87
2018-04-18T06:32:33.566Z,1006.91
2018-04-18T06:33:54.564Z,1006.91
2018-04-18T06:34:33.549Z,1006.88
2018-04-18T06:35:33.543Z,1006.92
2018-04-18T06:36:33.539Z,1006.90
2018-04-18T06:37:33.529Z,1006.92
2018-04-18T06:38:33.522Z,1006.91
2018-04-18T06:39:54.524Z,1006.91
2018-04-18T06:40:33.509Z,1006.89
2018-04-18T06:41:33.505Z,1006.93
2018-04-18T06:42:33.497Z,1006.94
2018-04-18T06:43:33.488Z,1006.96
2018-04-18T06:44:33.484Z,1006.90
2018-04-18T06:45:54.490Z,1006.92
2018-04-18T06:46:33.467Z,1006.89
2018-04-18T06:47:33.462Z,1006.88
2018-04-18T06:48:33.453Z,1006.87
2018-04-18T06:49:33.446Z,1006.87
2018-04-18T06:50:33.440Z,1006.85
2018-04-18T06:51:54.439Z,1006.85
2018-04-18T06:52:33.430Z,1006.91
2018-04-18T06:53:33.421Z,1006.90
2018-04-18T06:54:33.419Z,1006.92
2018-04-18T06:55:33.404Z,1006.89
2018-04-18T06:56:33.395Z,1006.93
2018-04-18T06:57:54.398Z,1006.97
2018-04-18T06:58:33.385Z,1006.92
2018-04-18T06:59:33.382Z,1006.90
2018-04-18T07:00:33.403Z,1006.90
2018-04-18T07:01:33.363Z,1006.92
2018-04-18T07:02:33.399Z,1006.92
2018-04-18T07:03:54.362Z,1006.95
2018-04-18T07:04:33.343Z,1006.94
2018-04-18T07:05:33.339Z,1006.93
2018-04-18T07:06:33.328Z,1006.97
2018-04-18T07:07:33.321Z,1006.98
2018-04-18T07:08:33.317Z,1006.97
2018-04-18T07:09:54.316Z,1006.99
2018-04-18T07:10:33.303Z,1006.99
2018-04-18T07:11:33.294Z,1007.02
2018-04-18T07:12:33.308Z,1006.98
2018-04-18T07:13:33.281Z,1007.04
2018-04-18T07:14:33.275Z,1006.98
2018-04-18T07:15:54.276Z,1007.02
2018-04-18T07:16:33.260Z,1007.01
2018-04-18T07:17:33.255Z,1007.03
2018-04-18T07:18:33.247Z,1007.04
2018-04-18T07:19:33.243Z,1007.05
2018-04-18T07:20:33.234Z,1007.05
2018-04-18T07:21:54.234Z,1007.04
2018-04-18T07:22:33.221Z,1007.02
2018-04-18T07:23:33.214Z,1006.99
2018-04-18T07:24:33.207Z,1007.04
2018-04-18T07:25:33.204Z,1007.05
2018-04-18T07:26:33.196Z,1007.05
2018-04-18T07:27:54.189Z,1007.06
2018-04-18T07:28:33.179Z,1007.07
2018-04-18T07:29:33.174Z,1007.09
2018-04-18T07:30:33.165Z,1007.11
2018-04-18T07:31:33.159Z,1007.15
2018-04-18T07:32:33.155Z,1007.12
2018-04-18T07:33:54.153Z,1007.09
2018-04-18T07:34:33.145Z,1007.16
2018-04-18T07:35:33.144Z,1007.15
2018-04-18T07:36:33.125Z,1007.15
2018-04-18T07:37:33.121Z,1007.15
2018-04-18T07:38:33.113Z,1007.17
2018-04-18T07:39:54.112Z,1007.15
2018-04-18T07:40:33.100Z,1007.20
2018-04-18T07:41:33.100Z,1007.18
2018-04-18T07:42:33.088Z,1007.19
2018-04-18T07:43:33.079Z,1007.20
2018-04-18T07:44:33.077Z,1007.26
2018-04-18T07:45:54.074Z,1007.21
2018-04-18T07:46:33.060Z,1007.21
2018-04-18T07:47:33.055Z,1007.21
2018-04-18T07:48:33.051Z,1007.22
2018-04-18T07:49:33.041Z,1007.21
2018-04-18T07:50:33.038Z,1007.23
2018-04-18T07:51:54.034Z,1007.24
2018-04-18T07:52:33.023Z,1007.23
2018-04-18T07:53:33.014Z,1007.26
2018-04-18T07:54:33.009Z,1007.26
2018-04-18T07:55:33.009Z,1007.29
2018-04-18T07:56:33.001Z,1007.24
2018-04-18T07:57:53.996Z,1007.27
2018-04-18T07:58:32.987Z,1007.28
2018-04-18T07:59:32.979Z,1007.27
2018-04-18T08:00:32.970Z,1007.28
2018-04-18T08:01:32.969Z,1007.27
2018-04-18T08:02:32.957Z,1007.26
2018-04-18T08:03:53.957Z,1007.29
2018-04-18T08:04:32.952Z,1007.27
2018-04-18T08:05:32.941Z,1007.29
2018-04-18T08:06:32.938Z,1007.31
2018-04-18T08:07:32.925Z,1007.31
2018-04-18T08:08:32.923Z,1007.39
2018-04-18T08:09:53.923Z,1007.33
2018-04-18T08:10:32.910Z,1007.34
2018-04-18T08:11:32.902Z,1007.40
2018-04-18T08:12:32.896Z,1007.41
2018-04-18T08:13:32.906Z,1007.42
2018-04-18T08:14:32.884Z,1007.39
2018-04-18T08:15:53.884Z,1007.43
2018-04-18T08:16:32.872Z,1007.42
2018-04-18T08:17:32.868Z,1007.45
2018-04-18T08:18:32.863Z,1007.48
2018-04-18T08:19:32.853Z,1007.49
2018-04-18T08:20:32.848Z,1007.47
2018-04-18T08:21:53.849Z,1007.51
2018-04-18T08:22:32.840Z,1007.52
2018-04-18T08:23:32.829Z,1007.55
2018-04-18T08:24:32.832Z,1007.50
2018-04-18T08:25:32.818Z,1007.54
2018-04-18T08:26:32.812Z,1007.54
2018-04-18T08:27:53.810Z,1007.57
2018-04-18T08:28:32.801Z,1007.59
2018-04-18T08:29:32.797Z,1007.57
2018-04-18T08:30:32.791Z,1007.60
2018-04-18T08:31:32.783Z,1007.59
2018-04-18T08:32:32.781Z,1007.59
2018-04-18T08:33:53.777Z,1007.61
2018-04-18T08:34:32.767Z,1007.64
2018-04-18T08:35:32.764Z,1007.68
2018-04-18T08:36:32.752Z,1007.66
2018-04-18T08:37:32.744Z,1007.65
2018-04-18T08:38:32.740Z,1007.69
2018-04-18T08:39:53.742Z,1007.67
2018-04-18T08:40:32.738Z,1007.69
2018-04-18T08:41:32.724Z,1007.71
2018-04-18T08:42:32.718Z,1007.78
2018-04-18T08:43:32.712Z,1007.71
2018-04-18T08:44:32.712Z,1007.74
2018-04-18T08:45:53.706Z,1007.78
2018-04-18T08:46:32.696Z,1007.68
2018-04-18T08:47:32.688Z,1007.67
2018-04-18T08:48:32.686Z,1007.72
2018-04-18T08:49:32.679Z,1007.71
2018-04-18T08:50:32.677Z,1007.72
2018-04-18T08:51:53.676Z,1007.73
2018-04-18T08:52:32.665Z,1007.70
2018-04-18T08:53:32.654Z,1007.72
2018-04-18T08:54:32.649Z,1007.73
2018-04-18T08:55:32.643Z,1007.73
2018-04-18T08:56:32.639Z,1007.74
2018-04-18T08:57:53.642Z,1007.71
2018-04-18T08:58:32.625Z,1007.71
2018-04-18T08:59:32.623Z,1007.72
2018-04-18T09:00:32.615Z,1007.68
2018-04-18T09:01:32.611Z,1007.73
2018-04-18T09:02:32.604Z,1007.72
2018-04-18T09:03:53.605Z,1007.68
2018-04-18T09:04:32.593Z,1007.67
2018-04-18T09:05:32.591Z,1007.68
2018-04-18T09:06:32.582Z,1007.71
2018-04-18T09:07:32.579Z,1007.68
2018-04-18T09:08:32.570Z,1007.70
2018-04-18T09:09:53.573Z,1007.66
2018-04-18T09:10:32.562Z,1007.63
2018-04-18T09:11:32.551Z,1007.65
2018-04-18T09:12:32.546Z,1007.65
2018-04-18T09:13:32.541Z,1007.65
2018-04-18T09:14:32.542Z,1007.65
2018-04-18T09:15:53.543Z,1007.68
2018-04-18T09:16:32.528Z,1007.66
2018-04-18T09:17:32.527Z,1007.72
2018-04-18T09:18:32.518Z,1007.69
2018-04-18T09:19:32.511Z,1007.69
2018-04-18T09:20:32.506Z,1007.71
2018-04-18T09:21:53.507Z,1007.70
2018-04-18T09:22:32.497Z,1007.71
2018-04-18T09:23:32.489Z,1007.63
2018-04-18T09:24:32.485Z,1007.66
2018-04-18T09:25:32.477Z,1007.64
2018-04-18T09:26:32.473Z,1007.64
2018-04-18T09:27:53.475Z,1007.66
2018-04-18T09:28:32.528Z,1007.64
2018-04-18T09:29:32.458Z,1007.64
2018-04-18T09:30:32.454Z,1007.64
2018-04-18T09:31:32.449Z,1007.64
2018-04-18T09:32:32.443Z,1007.63
2018-04-18T09:33:53.449Z,1007.64
2018-04-18T09:34:32.435Z,1007.65
2018-04-18T09:35:32.425Z,1007.65
2018-04-18T09:36:32.420Z,1007.62
2018-04-18T09:37:32.417Z,1007.63
2018-04-18T09:38:32.409Z,1007.66
2018-04-18T09:39:53.410Z,1007.62
2018-04-18T09:40:32.404Z,1007.58
2018-04-18T09:41:32.395Z,1007.55
2018-04-18T09:42:32.392Z,1007.61
2018-04-18T09:43:32.413Z,1007.59
2018-04-18T09:44:32.379Z,1007.58
2018-04-18T09:45:53.383Z,1007.58
2018-04-18T09:46:32.374Z,1007.58
2018-04-18T09:47:32.365Z,1007.61
2018-04-18T09:48:32.368Z,1007.56
2018-04-18T09:49:32.383Z,1007.56
2018-04-18T09:50:32.354Z,1007.58
2018-04-18T09:51:53.354Z,1007.55
2018-04-18T09:52:32.342Z,1007.55
2018-04-18T09:53:32.335Z,1007.50
2018-04-18T09:54:32.331Z,1007.54
2018-04-18T09:55:32.323Z,1007.52
2018-04-18T09:56:32.322Z,1007.52
2018-04-18T09:57:53.327Z,1007.55
2018-04-18T09:58:32.368Z,1007.54
2018-04-18T09:59:32.308Z,1007.57
2018-04-18T10:00:32.302Z,1007.55
2018-04-18T10:01:32.295Z,1007.54
2018-04-18T10:02:32.291Z,1007.51
2018-04-18T10:03:53.291Z,1007.50
2018-04-18T10:04:32.280Z,1007.54
2018-04-18T10:05:32.276Z,1007.50
2018-04-18T10:06:32.270Z,1007.56
2018-04-18T10:07:32.270Z,1007.52
2018-04-18T10:08:32.259Z,1007.54
2018-04-18T10:09:53.266Z,1007.52
2018-04-18T10:10:32.253Z,1007.53
2018-04-18T10:11:32.247Z,1007.55
2018-04-18T10:12:32.245Z,1007.55
2018-04-18T10:13:32.243Z,1007.52
2018-04-18T10:14:32.235Z,1007.49
2018-04-18T10:15:53.234Z,1007.51
2018-04-18T10:16:32.218Z,1007.56
2018-04-18T10:17:32.221Z,1007.54
2018-04-18T10:18:32.216Z,1007.55
2018-04-18T10:19:32.207Z,1007.55
2018-04-18T10:20:32.202Z,1007.55
2018-04-18T10:21:53.206Z,1007.55
2018-04-18T10:22:32.195Z,1007.56
2018-04-18T10:23:32.186Z,1007.59
2018-04-18T10:24:32.185Z,1007.55
2018-04-18T10:25:32.176Z,1007.61
2018-04-18T10:26:32.178Z,1007.60
2018-04-18T10:27:53.177Z,1007.55
2018-04-18T10:28:32.164Z,1007.59
2018-04-18T10:29:32.159Z,1007.57
2018-04-18T10:30:32.164Z,1007.57
2018-04-18T10:31:32.204Z,1007.59
2018-04-18T10:32:32.143Z,1007.58
2018-04-18T10:33:53.146Z,1007.58
2018-04-18T10:34:32.142Z,1007.53
2018-04-18T10:35:32.163Z,1007.55
2018-04-18T10:36:32.124Z,1007.53
2018-04-18T10:37:32.121Z,1007.51
2018-04-18T10:38:32.120Z,1007.52
2018-04-18T10:39:53.117Z,1007.56
2018-04-18T10:40:32.109Z,1007.56
2018-04-18T10:41:32.103Z,1007.47
2018-04-18T10:42:32.096Z,1007.53
2018-04-18T10:43:32.089Z,1007.53
2018-04-18T10:44:32.091Z,1007.52
2018-04-18T10:45:53.090Z,1007.49
2018-04-18T10:46:32.082Z,1007.50
2018-04-18T10:47:32.073Z,1007.47
2018-04-18T10:48:32.071Z,1007.45
2018-04-18T10:49:32.067Z,1007.54
2018-04-18T10:50:32.056Z,1007.45
2018-04-18T10:51:53.062Z,1007.46
2018-04-18T10:52:32.048Z,1007.48
2018-04-18T10:53:32.048Z,1007.42
2018-04-18T10:54:32.043Z,1007.43
2018-04-18T10:55:32.037Z,1007.39
2018-04-18T10:56:32.032Z,1007.42
2018-04-18T10:57:53.037Z,1007.39
2018-04-18T10:58:32.031Z,1007.40
2018-04-18T10:59:32.019Z,1007.39
2018-04-18T11:00:32.014Z,1007.43
2018-04-18T11:01:32.009Z,1007.38
2018-04-18T11:02:32.006Z,1007.35
2018-04-18T11:03:53.004Z,1007.35
2018-04-18T11:04:31.999Z,1007.35
2018-04-18T11:05:31.992Z,1007.35
2018-04-18T11:06:31.987Z,1007.27
2018-04-18T11:07:31.980Z,1007.33
2018-04-18T11:08:31.982Z,1007.34
2018-04-18T11:09:52.985Z,1007.32
2018-04-18T11:10:31.962Z,1007.26
2018-04-18T11:11:31.961Z,1007.27
2018-04-18T11:12:31.957Z,1007.26
2018-04-18T11:13:31.953Z,1007.23
2018-04-18T11:14:31.949Z,1007.26
2018-04-18T11:15:52.949Z,1007.23
2018-04-18T11:16:31.940Z,1007.21
2018-04-18T11:17:31.937Z,1007.22
2018-04-18T11:18:31.930Z,1007.25
2018-04-18T11:19:31.923Z,1007.27
2018-04-18T11:20:31.921Z,1007.24
2018-04-18T11:21:52.924Z,1007.25
2018-04-18T11:22:31.921Z,1007.26
2018-04-18T11:23:31.905Z,1007.24
2018-04-18T11:24:31.902Z,1007.22
2018-04-18T11:25:31.923Z,1007.22
2018-04-18T11:26:31.891Z,1007.22
2018-04-18T11:27:52.923Z,1007.20
2018-04-18T11:28:31.882Z,1007.19
2018-04-18T11:29:31.876Z,1007.16
2018-04-18T11:30:31.875Z,1007.16
2018-04-18T11:31:31.877Z,1007.18
2018-04-18T11:32:31.869Z,1007.18
2018-04-18T11:33:52.866Z,1007.17
2018-04-18T11:34:31.855Z,1007.13
2018-04-18T11:35:31.850Z,1007.15
2018-04-18T11:36:31.847Z,1007.23
2018-04-18T11:37:31.838Z,1007.22
2018-04-18T11:38:31.835Z,1007.19
2018-04-18T11:39:52.841Z,1007.20
2018-04-18T11:40:31.832Z,1007.17
2018-04-18T11:41:31.822Z,1007.11
2018-04-18T11:42:31.830Z,1007.10
2018-04-18T11:43:31.816Z,1007.11
2018-04-18T11:44:31.816Z,1007.09
2018-04-18T11:45:52.820Z,1007.11
2018-04-18T11:46:31.799Z,1007.08
2018-04-18T11:47:31.793Z,1007.06
2018-04-18T11:48:31.788Z,1007.11
2018-04-18T11:49:31.787Z,1007.11
2018-04-18T11:50:31.783Z,1007.05
2018-04-18T11:51:52.911Z,1007.08
2018-04-18T11:52:31.770Z,1007.08
2018-04-18T11:53:31.766Z,1007.09
2018-04-18T11:54:31.760Z,1007.12
2018-04-18T11:55:31.754Z,1007.11
2018-04-18T11:56:31.751Z,1007.06
2018-04-18T11:57:52.760Z,1007.07
2018-04-18T11:58:31.742Z,1007.12
2018-04-18T11:59:31.734Z,1007.08
2018-04-18T12:00:31.736Z,1007.11
2018-04-18T12:01:31.735Z,1007.05
2018-04-18T12:02:31.739Z,1007.07
2018-04-18T12:03:52.724Z,1007.06
2018-04-18T12:04:31.713Z,1007.10
2018-04-18T12:05:31.707Z,1007.07